sensor_id;sensor_type;location;lat;lon;timestamp;pressure;altitude;pressure_sealevel;temperature;humidity
47260;BME280;32999;52.412;4.890;2022-08-01T00:03:45;101754.44;;;20.18;100.00
47260;BME280;32999;52.412;4.890;2022-08-01T00:08:47;101759.94;;;20.30;100.00
47260;BME280;32999;52.412;4.890;2022-08-01T00:13:50;101753.94;;;20.28;100.00
47260;BME280;32999;52.412;4.890;2022-08-01T00:18:52;101761.91;;;20.23;100.00
47260;BME280;32999;52.412;4.890;2022-08-01T00:23:54;101742.34;;;20.02;100.00
47260;BME280;32999;52.412;4.890;2022-08-01T00:28:59;101775.50;;;20.23;100.00
47260;BME280;32999;52.412;4.890;2022-08-01T00:34:07;101772.41;;;20.19;100.00
47260;BME280;32999;52.412;4.890;2022-08-01T00:39:13;101771.50;;;20.25;100.00
47260;BME280;32999;52.412;4.890;2022-08-01T00:44:16;101776.47;;;20.28;100.00
47260;BME280;32999;52.412;4.890;2022-08-01T00:49:18;101776.94;;;20.25;100.00
47260;BME280;32999;52.412;4.890;2022-08-01T00:54:20;101787.22;;;20.35;100.00
47260;BME280;32999;52.412;4.890;2022-08-01T00:59:23;101740.31;;;19.98;100.00
47260;BME280;32999;52.412;4.890;2022-08-01T01:04:25;101775.66;;;20.28;100.00
47260;BME280;32999;52.412;4.890;2022-08-01T01:09:34;101708.94;;;19.84;100.00
47260;BME280;32999;52.412;4.890;2022-08-01T01:14:55;101815.53;;;20.27;100.00
47260;BME280;32999;52.412;4.890;2022-08-01T01:20:00;101672.91;;;19.58;100.00
47260;BME280;32999;52.412;4.890;2022-08-01T01:25:23;101710.59;;;19.66;100.00
47260;BME280;32999;52.412;4.890;2022-08-01T01:30:30;101764.09;;;20.14;100.00
47260;BME280;32999;52.412;4.890;2022-08-01T01:35:36;101721.44;;;19.85;100.00
47260;BME280;32999;52.412;4.890;2022-08-01T01:40:40;101734.84;;;19.80;100.00
47260;BME280;32999;52.412;4.890;2022-08-01T01:45:45;101769.09;;;20.17;100.00
47260;BME280;32999;52.412;4.890;2022-08-01T01:50:49;101781.00;;;20.16;100.00
47260;BME280;32999;52.412;4.890;2022-08-01T01:55:52;101762.91;;;20.10;100.00
47260;BME280;32999;52.412;4.890;2022-08-01T02:00:57;101731.84;;;19.88;100.00
47260;BME280;32999;52.412;4.890;2022-08-01T02:06:00;101698.31;;;19.64;100.00
47260;BME280;32999;52.412;4.890;2022-08-01T02:11:04;101805.56;;;20.21;100.00
47260;BME280;32999;52.412;4.890;2022-08-01T02:16:26;101727.88;;;19.72;100.00
47260;BME280;32999;52.412;4.890;2022-08-01T02:21:33;101797.88;;;20.00;100.00
47260;BME280;32999;52.412;4.890;2022-08-01T02:26:39;101780.44;;;19.71;100.00
47260;BME280;32999;52.412;4.890;2022-08-01T02:31:44;101802.09;;;19.78;100.00
47260;BME280;32999;52.412;4.890;2022-08-01T02:36:48;101809.47;;;19.70;100.00
47260;BME280;32999;52.412;4.890;2022-08-01T02:41:54;101808.63;;;19.70;100.00
47260;BME280;32999;52.412;4.890;2022-08-01T02:47:01;101812.56;;;19.74;100.00
47260;BME280;32999;52.412;4.890;2022-08-01T02:52:05;101807.97;;;19.75;100.00
47260;BME280;32999;52.412;4.890;2022-08-01T02:57:08;101808.56;;;19.77;100.00
47260;BME280;32999;52.412;4.890;2022-08-01T03:02:12;101799.72;;;19.63;100.00
47260;BME280;32999;52.412;4.890;2022-08-01T03:07:15;101796.47;;;19.54;100.00
47260;BME280;32999;52.412;4.890;2022-08-01T03:12:20;101804.09;;;19.64;100.00
47260;BME280;32999;52.412;4.890;2022-08-01T03:17:25;101810.50;;;19.69;100.00
47260;BME280;32999;52.412;4.890;2022-08-01T03:22:28;101816.53;;;19.47;100.00
47260;BME280;32999;52.412;4.890;2022-08-01T03:27:31;101818.16;;;19.54;100.00
47260;BME280;32999;52.412;4.890;2022-08-01T03:32:35;101749.88;;;19.08;100.00
47260;BME280;32999;52.412;4.890;2022-08-01T03:37:41;101744.38;;;18.96;100.00
47260;BME280;32999;52.412;4.890;2022-08-01T03:42:48;101794.09;;;19.33;100.00
47260;BME280;32999;52.412;4.890;2022-08-01T03:47:55;101832.78;;;19.53;100.00
47260;BME280;32999;52.412;4.890;2022-08-01T03:53:00;101745.03;;;18.91;100.00
47260;BME280;32999;52.412;4.890;2022-08-01T03:58:03;101753.19;;;18.85;100.00
47260;BME280;32999;52.412;4.890;2022-08-01T04:03:08;101782.16;;;19.16;100.00
47260;BME280;32999;52.412;4.890;2022-08-01T04:08:10;101810.53;;;19.38;100.00
47260;BME280;32999;52.412;4.890;2022-08-01T04:13:11;101850.72;;;19.54;100.00
47260;BME280;32999;52.412;4.890;2022-08-01T04:18:14;101806.47;;;19.29;100.00
47260;BME280;32999;52.412;4.890;2022-08-01T04:23:17;101800.25;;;19.22;100.00
47260;BME280;32999;52.412;4.890;2022-08-01T04:28:22;101828.44;;;19.14;100.00
47260;BME280;32999;52.412;4.890;2022-08-01T04:33:28;101714.06;;;18.43;100.00
47260;BME280;32999;52.412;4.890;2022-08-01T04:38:33;101851.09;;;18.88;100.00
47260;BME280;32999;52.412;4.890;2022-08-01T04:43:37;101815.38;;;18.66;100.00
47260;BME280;32999;52.412;4.890;2022-08-01T04:48:40;101876.47;;;19.00;100.00
47260;BME280;32999;52.412;4.890;2022-08-01T04:53:43;101870.41;;;19.05;100.00
47260;BME280;32999;52.412;4.890;2022-08-01T04:58:46;101855.91;;;18.86;100.00
47260;BME280;32999;52.412;4.890;2022-08-01T05:03:49;101865.50;;;18.82;100.00
47260;BME280;32999;52.412;4.890;2022-08-01T05:08:50;101849.50;;;18.74;100.00
47260;BME280;32999;52.412;4.890;2022-08-01T05:13:52;101896.44;;;19.06;100.00
47260;BME280;32999;52.412;4.890;2022-08-01T05:18:55;101877.13;;;18.89;100.00
47260;BME280;32999;52.412;4.890;2022-08-01T05:23:57;101884.22;;;18.90;100.00
47260;BME280;32999;52.412;4.890;2022-08-01T05:28:58;101857.03;;;18.72;100.00
47260;BME280;32999;52.412;4.890;2022-08-01T05:34:02;101858.91;;;18.58;100.00
47260;BME280;32999;52.412;4.890;2022-08-01T05:39:03;101892.44;;;18.77;100.00
47260;BME280;32999;52.412;4.890;2022-08-01T05:44:05;101822.53;;;18.41;100.00
47260;BME280;32999;52.412;4.890;2022-08-01T05:49:08;101940.06;;;18.91;100.00
47260;BME280;32999;52.412;4.890;2022-08-01T05:54:10;101838.84;;;18.28;100.00
47260;BME280;32999;52.412;4.890;2022-08-01T05:59:12;101832.34;;;18.35;100.00
47260;BME280;32999;52.412;4.890;2022-08-01T06:04:15;101904.41;;;18.94;100.00
47260;BME280;32999;52.412;4.890;2022-08-01T06:09:16;101911.06;;;18.98;100.00
47260;BME280;32999;52.412;4.890;2022-08-01T06:14:18;101799.16;;;17.95;100.00
47260;BME280;32999;52.412;4.890;2022-08-01T06:19:21;101866.28;;;18.38;100.00
47260;BME280;32999;52.412;4.890;2022-08-01T06:24:22;101881.06;;;18.35;100.00
47260;BME280;32999;52.412;4.890;2022-08-01T06:29:24;101862.19;;;18.09;100.00
47260;BME280;32999;52.412;4.890;2022-08-01T06:34:27;101836.41;;;18.00;100.00
47260;BME280;32999;52.412;4.890;2022-08-01T06:39:28;101919.31;;;18.59;100.00
47260;BME280;32999;52.412;4.890;2022-08-01T06:44:30;101840.44;;;18.42;100.00
47260;BME280;32999;52.412;4.890;2022-08-01T06:49:33;101865.28;;;18.84;100.00
47260;BME280;32999;52.412;4.890;2022-08-01T06:54:35;101916.78;;;19.22;100.00
47260;BME280;32999;52.412;4.890;2022-08-01T06:59:36;101914.19;;;19.33;100.00
47260;BME280;32999;52.412;4.890;2022-08-01T07:04:39;101908.84;;;19.58;100.00
47260;BME280;32999;52.412;4.890;2022-08-01T07:09:41;101777.13;;;18.88;100.00
47260;BME280;32999;52.412;4.890;2022-08-01T07:14:43;101821.31;;;19.20;100.00
47260;BME280;32999;52.412;4.890;2022-08-01T07:19:46;101903.00;;;19.61;100.00
47260;BME280;32999;52.412;4.890;2022-08-01T07:24:47;101888.00;;;19.27;100.00
47260;BME280;32999;52.412;4.890;2022-08-01T07:29:49;101900.84;;;19.00;100.00
47260;BME280;32999;52.412;4.890;2022-08-01T07:34:52;101788.00;;;18.36;100.00
47260;BME280;32999;52.412;4.890;2022-08-01T07:39:54;101902.44;;;19.15;100.00
47260;BME280;32999;52.412;4.890;2022-08-01T07:44:56;101873.19;;;18.85;100.00
47260;BME280;32999;52.412;4.890;2022-08-01T07:50:04;101843.78;;;18.95;100.00
47260;BME280;32999;52.412;4.890;2022-08-01T07:55:07;101947.66;;;19.84;100.00
47260;BME280;32999;52.412;4.890;2022-08-01T08:00:10;101874.22;;;19.60;100.00
47260;BME280;32999;52.412;4.890;2022-08-01T08:05:13;101818.41;;;19.71;100.00
47260;BME280;32999;52.412;4.890;2022-08-01T08:10:15;101891.25;;;20.35;100.00
47260;BME280;32999;52.412;4.890;2022-08-01T08:15:16;101916.44;;;20.24;100.00
47260;BME280;32999;52.412;4.890;2022-08-01T08:20:19;101923.63;;;20.12;100.00
47260;BME280;32999;52.412;4.890;2022-08-01T08:25:25;101941.00;;;20.29;100.00
47260;BME280;32999;52.412;4.890;2022-08-01T08:30:27;101953.66;;;20.60;100.00
47260;BME280;32999;52.412;4.890;2022-08-01T08:35:30;101874.78;;;20.12;100.00
47260;BME280;32999;52.412;4.890;2022-08-01T08:40:35;101932.38;;;20.14;100.00
47260;BME280;32999;52.412;4.890;2022-08-01T08:45:36;101918.66;;;20.09;100.00
47260;BME280;32999;52.412;4.890;2022-08-01T08:50:41;101825.47;;;19.47;100.00
47260;BME280;32999;52.412;4.890;2022-08-01T08:55:43;101852.09;;;19.82;100.00
47260;BME280;32999;52.412;4.890;2022-08-01T09:00:45;101957.53;;;20.89;100.00
47260;BME280;32999;52.412;4.890;2022-08-01T09:05:48;101845.41;;;20.27;100.00
47260;BME280;32999;52.412;4.890;2022-08-01T09:10:50;101954.88;;;21.49;100.00
47260;BME280;32999;52.412;4.890;2022-08-01T09:15:52;101848.16;;;21.24;100.00
47260;BME280;32999;52.412;4.890;2022-08-01T09:21:13;101956.78;;;22.37;100.00
47260;BME280;32999;52.412;4.890;2022-08-01T09:26:17;101949.53;;;23.18;100.00
47260;BME280;32999;52.412;4.890;2022-08-01T09:31:20;101847.00;;;22.36;100.00
47260;BME280;32999;52.412;4.890;2022-08-01T09:36:24;101957.47;;;22.79;100.00
47260;BME280;32999;52.412;4.890;2022-08-01T09:41:29;101970.47;;;22.77;100.00
47260;BME280;32999;52.412;4.890;2022-08-01T09:46:32;101913.50;;;22.87;100.00
47260;BME280;32999;52.412;4.890;2022-08-01T09:51:37;101932.38;;;23.05;100.00
47260;BME280;32999;52.412;4.890;2022-08-01T09:56:41;101973.44;;;23.67;100.00
47260;BME280;32999;52.412;4.890;2022-08-01T10:01:44;101899.63;;;23.17;100.00
47260;BME280;32999;52.412;4.890;2022-08-01T10:06:50;101927.94;;;23.73;100.00
47260;BME280;32999;52.412;4.890;2022-08-01T10:11:55;101899.72;;;23.84;100.00
47260;BME280;32999;52.412;4.890;2022-08-01T10:16:59;101837.72;;;23.18;100.00
47260;BME280;32999;52.412;4.890;2022-08-01T10:22:05;101918.75;;;23.62;100.00
47260;BME280;32999;52.412;4.890;2022-08-01T10:27:09;101844.88;;;23.07;100.00
47260;BME280;32999;52.412;4.890;2022-08-01T10:32:11;101983.28;;;24.02;100.00
47260;BME280;32999;52.412;4.890;2022-08-01T10:37:15;101975.34;;;24.17;100.00
47260;BME280;32999;52.412;4.890;2022-08-01T10:42:17;101986.94;;;23.91;100.00
47260;BME280;32999;52.412;4.890;2022-08-01T10:47:24;101981.22;;;23.76;100.00
47260;BME280;32999;52.412;4.890;2022-08-01T10:52:29;101974.25;;;23.85;100.00
47260;BME280;32999;52.412;4.890;2022-08-01T10:57:42;101999.69;;;24.35;100.00
47260;BME280;32999;52.412;4.890;2022-08-01T11:02:59;101973.00;;;24.81;100.00
47260;BME280;32999;52.412;4.890;2022-08-01T11:08:07;101998.53;;;25.30;100.00
47260;BME280;32999;52.412;4.890;2022-08-01T11:13:11;102008.97;;;25.12;100.00
47260;BME280;32999;52.412;4.890;2022-08-01T11:18:30;102006.75;;;25.08;100.00
47260;BME280;32999;52.412;4.890;2022-08-01T11:23:46;101901.81;;;24.71;100.00
47260;BME280;32999;52.412;4.890;2022-08-01T11:29:14;102010.56;;;25.29;100.00
47260;BME280;32999;52.412;4.890;2022-08-01T11:34:16;102001.03;;;25.86;100.00
47260;BME280;32999;52.412;4.890;2022-08-01T11:39:19;101902.03;;;25.13;100.00
47260;BME280;32999;52.412;4.890;2022-08-01T11:44:23;101935.19;;;26.07;100.00
47260;BME280;32999;52.412;4.890;2022-08-01T11:49:54;102009.91;;;26.67;100.00
47260;BME280;32999;52.412;4.890;2022-08-01T11:55:08;101913.22;;;27.02;100.00
47260;BME280;32999;52.412;4.890;2022-08-01T12:00:12;102007.03;;;27.97;89.92
47260;BME280;32999;52.412;4.890;2022-08-01T12:05:16;101954.44;;;27.17;89.33
47260;BME280;32999;52.412;4.890;2022-08-01T12:10:24;102002.09;;;27.84;84.88
47260;BME280;32999;52.412;4.890;2022-08-01T12:15:30;102013.91;;;28.04;83.44
47260;BME280;32999;52.412;4.890;2022-08-01T12:20:33;102010.06;;;28.16;83.99
47260;BME280;32999;52.412;4.890;2022-08-01T12:25:37;102010.31;;;27.84;81.24
47260;BME280;32999;52.412;4.890;2022-08-01T12:30:40;102017.13;;;27.46;85.72
47260;BME280;32999;52.412;4.890;2022-08-01T12:35:42;101983.75;;;26.96;84.05
47260;BME280;32999;52.412;4.890;2022-08-01T12:40:46;102019.41;;;27.94;80.75
47260;BME280;32999;52.412;4.890;2022-08-01T12:45:50;102016.09;;;27.77;77.44
47260;BME280;32999;52.412;4.890;2022-08-01T12:50:52;102010.88;;;28.01;69.05
47260;BME280;32999;52.412;4.890;2022-08-01T12:55:55;102011.63;;;28.77;71.06
47260;BME280;32999;52.412;4.890;2022-08-01T13:01:03;101985.00;;;28.48;67.81
47260;BME280;32999;52.412;4.890;2022-08-01T13:06:15;102006.44;;;28.61;68.44
47260;BME280;32999;52.412;4.890;2022-08-01T13:11:18;101991.91;;;28.30;73.36
47260;BME280;32999;52.412;4.890;2022-08-01T13:16:22;101994.88;;;28.64;66.90
47260;BME280;32999;52.412;4.890;2022-08-01T13:21:25;102011.13;;;29.40;69.88
47260;BME280;32999;52.412;4.890;2022-08-01T13:26:42;101991.56;;;29.36;63.18
47260;BME280;32999;52.412;4.890;2022-08-01T13:31:44;101899.97;;;28.61;64.04
47260;BME280;32999;52.412;4.890;2022-08-01T13:36:46;101977.06;;;28.41;67.20
47260;BME280;32999;52.412;4.890;2022-08-01T13:41:51;101960.84;;;27.73;67.80
47260;BME280;32999;52.412;4.890;2022-08-01T13:46:53;101967.09;;;27.28;72.04
47260;BME280;32999;52.412;4.890;2022-08-01T13:51:56;101962.88;;;26.95;75.46
47260;BME280;32999;52.412;4.890;2022-08-01T13:56:59;101942.53;;;26.34;77.38
47260;BME280;32999;52.412;4.890;2022-08-01T14:02:01;101858.22;;;25.40;71.47
47260;BME280;32999;52.412;4.890;2022-08-01T14:07:03;101966.34;;;25.96;73.72
47260;BME280;32999;52.412;4.890;2022-08-01T14:12:07;101955.75;;;25.73;75.63
47260;BME280;32999;52.412;4.890;2022-08-01T14:17:09;101852.56;;;24.93;72.32
47260;BME280;32999;52.412;4.890;2022-08-01T14:22:10;101916.59;;;25.46;79.79
47260;BME280;32999;52.412;4.890;2022-08-01T14:27:13;101889.13;;;25.08;76.92
47260;BME280;32999;52.412;4.890;2022-08-01T14:32:15;101809.41;;;24.95;66.96
47260;BME280;32999;52.412;4.890;2022-08-01T14:37:16;101935.50;;;25.47;76.82
47260;BME280;32999;52.412;4.890;2022-08-01T14:42:19;101852.66;;;25.03;69.10
47260;BME280;32999;52.412;4.890;2022-08-01T14:47:21;101850.72;;;24.98;72.17
47260;BME280;32999;52.412;4.890;2022-08-01T14:52:23;101849.03;;;24.49;69.98
47260;BME280;32999;52.412;4.890;2022-08-01T14:57:26;101935.81;;;25.24;74.93
47260;BME280;32999;52.412;4.890;2022-08-01T15:02:27;101901.72;;;25.09;70.77
47260;BME280;32999;52.412;4.890;2022-08-01T15:07:29;101960.06;;;25.42;72.30
47260;BME280;32999;52.412;4.890;2022-08-01T15:12:32;101898.03;;;25.26;71.67
47260;BME280;32999;52.412;4.890;2022-08-01T15:17:34;101946.38;;;25.42;69.95
47260;BME280;32999;52.412;4.890;2022-08-01T15:22:35;101841.84;;;24.64;70.12
47260;BME280;32999;52.412;4.890;2022-08-01T15:27:38;101970.53;;;25.50;74.84
47260;BME280;32999;52.412;4.890;2022-08-01T15:32:40;101899.69;;;24.78;70.12
47260;BME280;32999;52.412;4.890;2022-08-01T15:37:42;101903.97;;;24.30;71.13
47260;BME280;32999;52.412;4.890;2022-08-01T15:42:45;101909.56;;;23.85;78.97
47260;BME280;32999;52.412;4.890;2022-08-01T15:47:47;101952.59;;;24.28;80.25
47260;BME280;32999;52.412;4.890;2022-08-01T15:52:48;101836.84;;;23.96;82.29
47260;BME280;32999;52.412;4.890;2022-08-01T15:57:51;101955.78;;;23.58;100.00
47260;BME280;32999;52.412;4.890;2022-08-01T16:02:53;101933.97;;;23.75;100.00
47260;BME280;32999;52.412;4.890;2022-08-01T16:07:56;101924.56;;;23.09;100.00
47260;BME280;32999;52.412;4.890;2022-08-01T16:12:59;101955.19;;;23.28;100.00
47260;BME280;32999;52.412;4.890;2022-08-01T16:18:00;101945.00;;;22.95;100.00
47260;BME280;32999;52.412;4.890;2022-08-01T16:23:02;101918.84;;;22.59;100.00
47260;BME280;32999;52.412;4.890;2022-08-01T16:28:05;101957.00;;;22.82;100.00
47260;BME280;32999;52.412;4.890;2022-08-01T16:33:09;101907.53;;;22.38;100.00
47260;BME280;32999;52.412;4.890;2022-08-01T16:38:11;101953.09;;;22.55;100.00
47260;BME280;32999;52.412;4.890;2022-08-01T16:43:14;101967.56;;;22.32;100.00
47260;BME280;32999;52.412;4.890;2022-08-01T16:48:16;101956.94;;;22.19;100.00
47260;BME280;32999;52.412;4.890;2022-08-01T16:53:19;101948.66;;;22.25;100.00
47260;BME280;32999;52.412;4.890;2022-08-01T16:58:22;101908.81;;;21.24;100.00
47260;BME280;32999;52.412;4.890;2022-08-01T17:03:30;101891.28;;;20.72;100.00
47260;BME280;32999;52.412;4.890;2022-08-01T17:08:32;101856.50;;;20.62;100.00
47260;BME280;32999;52.412;4.890;2022-08-01T17:13:35;101933.84;;;21.08;100.00
47260;BME280;32999;52.412;4.890;2022-08-01T17:18:37;101965.63;;;21.44;100.00
47260;BME280;32999;52.412;4.890;2022-08-01T17:23:38;101905.53;;;21.16;100.00
47260;BME280;32999;52.412;4.890;2022-08-01T17:28:42;101820.22;;;20.38;100.00
47260;BME280;32999;52.412;4.890;2022-08-01T17:33:43;101989.81;;;21.34;100.00
47260;BME280;32999;52.412;4.890;2022-08-01T17:38:46;101841.31;;;20.55;100.00
47260;BME280;32999;52.412;4.890;2022-08-01T17:43:49;101917.97;;;20.93;100.00
47260;BME280;32999;52.412;4.890;2022-08-01T17:48:50;101972.44;;;21.17;100.00
47260;BME280;32999;52.412;4.890;2022-08-01T17:53:52;101967.19;;;21.22;100.00
47260;BME280;32999;52.412;4.890;2022-08-01T17:58:58;101968.06;;;21.16;100.00
47260;BME280;32999;52.412;4.890;2022-08-01T18:04:00;101955.09;;;20.99;100.00
47260;BME280;32999;52.412;4.890;2022-08-01T18:09:02;101977.59;;;20.88;100.00
47260;BME280;32999;52.412;4.890;2022-08-01T18:14:05;101920.41;;;20.65;100.00
47260;BME280;32999;52.412;4.890;2022-08-01T18:19:07;101954.13;;;20.94;100.00
47260;BME280;32999;52.412;4.890;2022-08-01T18:24:09;101963.50;;;20.98;100.00
47260;BME280;32999;52.412;4.890;2022-08-01T18:29:12;101947.84;;;20.93;100.00
47260;BME280;32999;52.412;4.890;2022-08-01T18:34:16;101957.06;;;20.92;100.00
47260;BME280;32999;52.412;4.890;2022-08-01T18:39:18;101973.66;;;20.84;100.00
47260;BME280;32999;52.412;4.890;2022-08-01T18:44:22;101959.03;;;20.67;100.00
47260;BME280;32999;52.412;4.890;2022-08-01T18:49:25;101964.19;;;20.75;100.00
47260;BME280;32999;52.412;4.890;2022-08-01T18:54:26;101918.00;;;20.32;100.00
47260;BME280;32999;52.412;4.890;2022-08-01T18:59:30;101960.38;;;20.58;100.00
47260;BME280;32999;52.412;4.890;2022-08-01T19:04:31;101883.81;;;20.06;100.00
47260;BME280;32999;52.412;4.890;2022-08-01T19:09:33;101935.34;;;20.31;100.00
47260;BME280;32999;52.412;4.890;2022-08-01T19:14:37;101987.25;;;20.48;100.00
47260;BME280;32999;52.412;4.890;2022-08-01T19:19:39;101885.13;;;19.79;100.00
47260;BME280;32999;52.412;4.890;2022-08-01T19:24:40;101985.97;;;20.25;100.00
47260;BME280;32999;52.412;4.890;2022-08-01T19:29:50;101989.56;;;20.19;100.00
47260;BME280;32999;52.412;4.890;2022-08-01T19:35:00;101934.72;;;19.86;100.00
47260;BME280;32999;52.412;4.890;2022-08-01T19:40:07;101929.84;;;19.69;100.00
47260;BME280;32999;52.412;4.890;2022-08-01T19:45:10;101932.50;;;19.51;100.00
47260;BME280;32999;52.412;4.890;2022-08-01T19:50:12;101979.41;;;19.83;100.00
47260;BME280;32999;52.412;4.890;2022-08-01T19:55:13;101984.34;;;19.61;100.00
47260;BME280;32999;52.412;4.890;2022-08-01T20:00:17;101938.03;;;19.25;100.00
47260;BME280;32999;52.412;4.890;2022-08-01T20:05:18;101990.28;;;19.52;100.00
47260;BME280;32999;52.412;4.890;2022-08-01T20:10:21;101976.09;;;19.43;100.00
47260;BME280;32999;52.412;4.890;2022-08-01T20:15:24;102010.09;;;19.39;100.00
47260;BME280;32999;52.412;4.890;2022-08-01T20:20:26;101988.50;;;19.19;100.00
47260;BME280;32999;52.412;4.890;2022-08-01T20:25:29;101960.69;;;18.99;100.00
47260;BME280;32999;52.412;4.890;2022-08-01T20:30:34;101905.81;;;18.52;100.00
47260;BME280;32999;52.412;4.890;2022-08-01T20:35:37;101942.16;;;18.83;100.00
47260;BME280;32999;52.412;4.890;2022-08-01T20:40:41;101980.22;;;19.08;100.00
47260;BME280;32999;52.412;4.890;2022-08-01T20:45:47;101976.09;;;18.98;100.00
47260;BME280;32999;52.412;4.890;2022-08-01T20:50:49;101929.50;;;18.57;100.00
47260;BME280;32999;52.412;4.890;2022-08-01T20:56:13;101952.66;;;18.73;100.00
47260;BME280;32999;52.412;4.890;2022-08-01T21:01:22;101968.28;;;18.71;100.00
47260;BME280;32999;52.412;4.890;2022-08-01T21:06:30;101911.72;;;18.10;100.00
47260;BME280;32999;52.412;4.890;2022-08-01T21:11:38;101966.63;;;18.50;100.00
47260;BME280;32999;52.412;4.890;2022-08-01T21:16:48;101984.94;;;18.54;100.00
47260;BME280;32999;52.412;4.890;2022-08-01T21:21:56;101906.53;;;17.95;100.00
47260;BME280;32999;52.412;4.890;2022-08-01T21:27:02;101926.72;;;18.06;100.00
47260;BME280;32999;52.412;4.890;2022-08-01T21:32:08;101885.53;;;17.71;100.00
47260;BME280;32999;52.412;4.890;2022-08-01T21:37:15;101936.91;;;17.97;100.00
47260;BME280;32999;52.412;4.890;2022-08-01T21:42:17;101956.69;;;18.04;100.00
47260;BME280;32999;52.412;4.890;2022-08-01T21:47:21;101935.84;;;17.85;100.00
47260;BME280;32999;52.412;4.890;2022-08-01T21:52:23;101961.88;;;17.92;100.00
47260;BME280;32999;52.412;4.890;2022-08-01T21:57:43;101934.41;;;17.69;100.00
47260;BME280;32999;52.412;4.890;2022-08-01T22:02:56;101963.31;;;17.82;100.00
47260;BME280;32999;52.412;4.890;2022-08-01T22:08:02;101886.50;;;17.37;100.00
47260;BME280;32999;52.412;4.890;2022-08-01T22:13:04;101902.13;;;17.48;100.00
47260;BME280;32999;52.412;4.890;2022-08-01T22:18:07;101953.34;;;17.76;100.00
47260;BME280;32999;52.412;4.890;2022-08-01T22:23:09;101939.19;;;17.74;100.00
47260;BME280;32999;52.412;4.890;2022-08-01T22:28:14;101945.00;;;17.71;100.00
47260;BME280;32999;52.412;4.890;2022-08-01T22:33:18;101824.25;;;16.84;100.00
47260;BME280;32999;52.412;4.890;2022-08-01T22:38:22;101941.03;;;17.66;100.00
47260;BME280;32999;52.412;4.890;2022-08-01T22:43:25;101940.41;;;17.64;100.00
47260;BME280;32999;52.412;4.890;2022-08-01T22:48:33;101920.84;;;17.62;100.00
47260;BME280;32999;52.412;4.890;2022-08-01T22:53:46;101920.84;;;17.62;100.00
47260;BME280;32999;52.412;4.890;2022-08-01T22:58:55;101826.19;;;17.03;100.00
47260;BME280;32999;52.412;4.890;2022-08-01T23:04:01;101895.03;;;17.40;100.00
47260;BME280;32999;52.412;4.890;2022-08-01T23:09:04;101835.94;;;17.11;100.00
47260;BME280;32999;52.412;4.890;2022-08-01T23:14:06;101857.41;;;17.25;100.00
47260;BME280;32999;52.412;4.890;2022-08-01T23:19:09;101906.69;;;17.47;100.00
47260;BME280;32999;52.412;4.890;2022-08-01T23:24:12;101924.00;;;17.66;100.00
47260;BME280;32999;52.412;4.890;2022-08-01T23:29:15;101920.03;;;17.68;100.00
47260;BME280;32999;52.412;4.890;2022-08-01T23:34:18;101932.53;;;17.70;100.00
47260;BME280;32999;52.412;4.890;2022-08-01T23:39:19;101911.94;;;17.68;100.00
47260;BME280;32999;52.412;4.890;2022-08-01T23:44:21;101914.63;;;17.68;100.00
47260;BME280;32999;52.412;4.890;2022-08-01T23:49:24;101904.88;;;17.74;100.00
47260;BME280;32999;52.412;4.890;2022-08-01T23:54:26;101911.53;;;17.72;100.00
47260;BME280;32999;52.412;4.890;2022-08-01T23:59:28;101892.19;;;17.68;100.00
